Raiger Juan Segundo — EA3764 — position and weather

sailwx.info

Track history (hours):
 
Tides and Currents Weather Stations Pressure Air Temp Water Temp Dewpoint Dewpoint Depression Visibility Wind Speed Wind Dir Waves Ship Positions

Raiger Juan Segundo

Last reported at 2018-Feb-15 14:08 UTC. Time now 2018-Feb-23 10:47 UTC.
Position N 43°34' W 005°41'.

Length 16 m; draft 16.5 m.

Type: Fishing. MMSI: 224041990.

Date/timePositionNaut miles runAvg speedWind from/ knotsBaromVisibWave heightAir tempDewpointWater temp
2018-Feb-15 14:08N 43°34' W 005°41'1 7.4
2018-Feb-15 13:59N 43°34' W 005°40'4 7.4
2018-Feb-15 13:28N 43°37' W 005°36'2 3.6
2018-Feb-15 13:00N 43°38' W 005°34'1 1.0
2018-Feb-15 12:28N 43°38' W 005°34'0 0.9
2018-Feb-15 11:53N 43°38' W 005°33'0 0.4
2018-Feb-15 11:29N 43°38' W 005°33'0 0.4
2018-Feb-15 10:59N 43°38' W 005°33'1 1.1
2018-Feb-15 10:30N 43°38' W 005°32'0 0.9
2018-Feb-15 10:00N 43°38' W 005°32'1 1.1
2018-Feb-15 09:30N 43°37' W 005°31'0 0.7
2018-Feb-15 09:00N 43°37' W 005°31'1 2.7
2018-Feb-15 08:29N 43°37' W 005°33'2 3.7
2018-Feb-15 07:57N 43°39' W 005°35'1 1.0
2018-Feb-15 07:11N 43°38' W 005°35'1 3.7
2018-Feb-15 07:00N 43°38' W 005°34'0 0.4
2018-Feb-15 06:20N 43°38' W 005°34'0 0.5
2018-Feb-15 05:56N 43°38' W 005°34'0 0.3
2018-Feb-15 05:30N 43°38' W 005°35'  
Track history (hours):
 
Tides and Currents Weather Stations Pressure Air Temp Water Temp Dewpoint Dewpoint Depression Visibility Wind Speed Wind Dir Waves Ship Positions

Raiger Juan Segundo

Last reported at 2018-Feb-15 14:08 UTC. Time now 2018-Feb-23 10:47 UTC.
Position N 43°34' W 005°41'.

Length 16 m; draft 16.5 m.

Type: Fishing. MMSI: 224041990.

Date/timePositionNaut miles runAvg speedWind from/ knotsBaromVisibWave heightAir tempDewpointWater temp
2018-Feb-15 14:08N 43°34' W 005°41'1 7.4
2018-Feb-15 13:59N 43°34' W 005°40'4 7.4
2018-Feb-15 13:28N 43°37' W 005°36'2 3.6
2018-Feb-15 13:00N 43°38' W 005°34'1 1.0
2018-Feb-15 12:28N 43°38' W 005°34'0 0.9
2018-Feb-15 11:53N 43°38' W 005°33'0 0.4
2018-Feb-15 11:29N 43°38' W 005°33'0 0.4
2018-Feb-15 10:59N 43°38' W 005°33'1 1.1
2018-Feb-15 10:30N 43°38' W 005°32'0 0.9
2018-Feb-15 10:00N 43°38' W 005°32'1 1.1
2018-Feb-15 09:30N 43°37' W 005°31'0 0.7
2018-Feb-15 09:00N 43°37' W 005°31'1 2.7
2018-Feb-15 08:29N 43°37' W 005°33'2 3.7
2018-Feb-15 07:57N 43°39' W 005°35'1 1.0
2018-Feb-15 07:11N 43°38' W 005°35'1 3.7
2018-Feb-15 07:00N 43°38' W 005°34'0 0.4
2018-Feb-15 06:20N 43°38' W 005°34'0 0.5
2018-Feb-15 05:56N 43°38' W 005°34'0 0.3
2018-Feb-15 05:30N 43°38' W 005°35'  

Dump ship's entire track history